createdAt,value
2023-03-27T00:04:09.362Z,66.74
2023-03-27T00:09:11.718Z,66.98
2023-03-27T00:14:14.006Z,65.23
2023-03-27T00:19:16.014Z,66.84
2023-03-27T00:24:17.770Z,67.81
2023-03-27T00:29:19.364Z,67.34
2023-03-27T00:34:21.150Z,66.76
2023-03-27T00:39:23.771Z,65.63
2023-03-27T00:44:31.162Z,65.17
2023-03-27T00:49:37.061Z,65.62
2023-03-27T00:54:40.051Z,66.68
2023-03-27T00:59:43.744Z,66.08
2023-03-27T01:04:46.574Z,67.81
2023-03-27T01:09:49.741Z,67.88
2023-03-27T01:15:26.463Z,67.73
2023-03-27T01:20:57.396Z,68.21
2023-03-27T01:26:35.653Z,69.00
2023-03-27T01:32:07.333Z,69.43
2023-03-27T01:37:22.317Z,69.89
2023-03-27T01:42:36.668Z,68.43
2023-03-27T01:47:51.645Z,67.57
2023-03-27T01:53:31.177Z,65.91
2023-03-27T01:58:40.850Z,63.69
2023-03-27T02:03:46.924Z,63.77
2023-03-27T02:09:04.055Z,63.87
2023-03-27T02:14:16.903Z,63.54
2023-03-27T02:19:25.985Z,63.31
2023-03-27T02:24:27.973Z,63.13
2023-03-27T02:29:35.264Z,63.51
2023-03-27T02:34:57.153Z,61.64
2023-03-27T02:40:24.125Z,63.10
2023-03-27T02:45:38.018Z,63.12
2023-03-27T02:51:03.756Z,63.58
2023-03-27T02:56:08.465Z,64.71
2023-03-27T03:01:13.756Z,62.94
2023-03-27T03:06:34.634Z,61.81
2023-03-27T03:11:44.727Z,61.10
2023-03-27T03:16:46.683Z,61.82
2023-03-27T03:21:49.492Z,63.04
2023-03-27T03:26:51.247Z,63.46
2023-03-27T03:31:54.006Z,64.01
2023-03-27T03:36:56.321Z,65.54
2023-03-27T03:42:04.275Z,66.67
2023-03-27T03:47:06.254Z,65.13
2023-03-27T03:52:08.413Z,65.26
2023-03-27T03:57:10.448Z,67.31
2023-03-27T04:02:12.526Z,67.84
2023-03-27T04:07:14.395Z,68.07
2023-03-27T04:12:20.436Z,67.30
2023-03-27T04:17:30.213Z,66.84
2023-03-27T04:22:37.943Z,65.34
2023-03-27T04:27:43.416Z,65.22
2023-03-27T04:32:53.163Z,63.31
2023-03-27T04:38:28.200Z,63.93
2023-03-27T04:43:40.159Z,64.63
2023-03-27T04:48:42.722Z,63.93
2023-03-27T04:54:05.058Z,64.48
2023-03-27T04:59:07.239Z,65.48
2023-03-27T05:04:09.026Z,64.23
2023-03-27T05:09:23.712Z,63.74
2023-03-27T05:14:25.422Z,65.52
2023-03-27T05:19:28.645Z,66.60
2023-03-27T05:24:33.945Z,64.90
2023-03-27T05:29:46.928Z,62.97
2023-03-27T05:34:51.341Z,61.61
2023-03-27T05:39:54.305Z,62.03
2023-03-27T05:44:56.189Z,63.07
2023-03-27T05:49:58.281Z,62.33
2023-03-27T05:55:00.116Z,61.90
2023-03-27T06:00:02.055Z,63.58
2023-03-27T06:05:10.675Z,63.30
2023-03-27T06:10:17.866Z,64.90
2023-03-27T06:15:40.927Z,64.90
2023-03-27T06:20:54.178Z,63.76
2023-03-27T06:25:56.160Z,63.89
2023-03-27T06:30:59.852Z,61.07
2023-03-27T06:36:14.786Z,59.83
2023-03-27T06:41:17.877Z,59.10
2023-03-27T06:46:45.955Z,59.51
2023-03-27T06:51:52.369Z,59.58
2023-03-27T06:56:55.930Z,59.15
2023-03-27T07:01:58.201Z,62.51
2023-03-27T07:06:59.914Z,62.52
2023-03-27T07:12:06.704Z,62.62
2023-03-27T07:17:09.845Z,60.16
2023-03-27T07:22:30.049Z,60.75
2023-03-27T07:27:37.921Z,60.81
2023-03-27T07:32:43.003Z,59.43
2023-03-27T07:37:45.677Z,61.21
2023-03-27T07:43:09.115Z,60.25
2023-03-27T07:48:16.251Z,59.88
2023-03-27T07:53:32.988Z,58.51
2023-03-27T07:58:44.722Z,56.70
2023-03-27T08:03:53.028Z,58.54
2023-03-27T08:08:57.105Z,58.52
2023-03-27T08:14:02.198Z,58.40
2023-03-27T08:19:04.704Z,56.84
2023-03-27T08:24:10.070Z,56.99
2023-03-27T08:29:43.381Z,53.49
2023-03-27T08:34:45.752Z,55.89
2023-03-27T08:39:58.792Z,57.36
2023-03-27T08:45:09.561Z,57.32
2023-03-27T08:50:41.239Z,55.06
2023-03-27T08:55:52.520Z,51.56
2023-03-27T09:01:45.179Z,50.48
2023-03-27T09:07:23.043Z,51.82
2023-03-27T09:12:46.710Z,52.15
2023-03-27T09:17:57.674Z,52.87
2023-03-27T09:23:05.518Z,51.85
2023-03-27T09:28:36.071Z,53.03
2023-03-27T09:33:42.269Z,54.12
2023-03-27T09:38:50.771Z,56.67
2023-03-27T09:44:09.935Z,59.38
2023-03-27T09:49:17.900Z,56.08
2023-03-27T09:54:25.626Z,51.77
2023-03-27T09:59:30.670Z,48.12
2023-03-27T10:04:40.250Z,45.57
2023-03-27T10:09:42.023Z,44.22
2023-03-27T10:14:51.787Z,45.35
2023-03-27T10:20:17.652Z,46.45
2023-03-27T10:25:38.850Z,46.62
2023-03-27T10:31:01.356Z,47.90
2023-03-27T10:36:26.613Z,48.61
2023-03-27T10:41:29.438Z,49.46
2023-03-27T10:46:39.686Z,47.30
2023-03-27T10:52:13.122Z,45.60
2023-03-27T10:57:35.657Z,44.55
2023-03-27T11:02:57.367Z,41.32
2023-03-27T11:08:08.558Z,48.34
2023-03-27T11:13:11.447Z,49.38
2023-03-27T11:18:20.156Z,48.72
2023-03-27T11:23:42.401Z,45.70
2023-03-27T11:28:58.391Z,46.81
2023-03-27T11:34:15.439Z,49.15
2023-03-27T11:39:39.521Z,47.72
2023-03-27T11:44:41.983Z,47.69
2023-03-27T11:50:01.364Z,45.62
2023-03-27T11:55:31.260Z,45.96
2023-03-27T12:00:45.113Z,48.07
2023-03-27T12:06:14.744Z,47.03
2023-03-27T12:11:21.902Z,44.27
2023-03-27T12:16:48.598Z,47.48
2023-03-27T12:22:32.617Z,54.03
2023-03-27T12:28:23.028Z,55.73
2023-03-27T12:33:44.687Z,58.31
2023-03-27T12:38:47.062Z,62.81
2023-03-27T12:43:57.683Z,60.75
2023-03-27T12:49:13.762Z,58.59
2023-03-27T12:54:35.517Z,53.95
2023-03-27T12:59:59.807Z,54.36
2023-03-27T13:05:26.779Z,51.63
2023-03-27T13:10:49.446Z,51.64
2023-03-27T13:16:23.551Z,47.87
2023-03-27T13:22:05.082Z,44.31
2023-03-27T13:27:35.406Z,44.27
2023-03-27T13:32:39.959Z,44.28
2023-03-27T13:37:50.962Z,45.10
2023-03-27T13:43:23.170Z,42.27
2023-03-27T13:48:56.350Z,43.94
2023-03-27T13:54:20.784Z,43.81
2023-03-27T13:59:46.148Z,41.21
2023-03-27T14:05:09.091Z,40.87
2023-03-27T14:10:42.635Z,42.35
2023-03-27T14:16:13.388Z,44.03
2023-03-27T14:21:35.652Z,44.52
2023-03-27T14:26:45.441Z,46.40
2023-03-27T14:31:50.942Z,44.10
2023-03-27T14:37:39.552Z,43.03
2023-03-27T14:43:12.211Z,42.58
2023-03-27T14:48:19.669Z,43.20
2023-03-27T14:53:29.276Z,44.03
2023-03-27T14:59:03.725Z,45.44
2023-03-27T15:04:35.021Z,41.81
2023-03-27T15:09:42.866Z,39.47
2023-03-27T15:15:17.123Z,42.89
2023-03-27T15:20:21.814Z,43.99
2023-03-27T15:25:36.145Z,43.15
2023-03-27T15:30:45.156Z,41.69
2023-03-27T15:35:51.820Z,41.56
2023-03-27T15:41:01.703Z,42.18
2023-03-27T15:46:26.719Z,41.76
2023-03-27T15:51:31.007Z,42.43
2023-03-27T15:56:40.338Z,41.80
2023-03-27T16:01:52.182Z,43.72
2023-03-27T16:07:17.953Z,45.57
2023-03-27T16:12:32.219Z,45.81
2023-03-27T16:17:40.443Z,45.58
2023-03-27T16:22:42.246Z,44.94
2023-03-27T16:27:51.299Z,43.60
2023-03-27T16:32:53.738Z,42.16
2023-03-27T16:37:56.539Z,41.97
2023-03-27T16:42:58.176Z,42.79
2023-03-27T16:47:59.866Z,43.73
2023-03-27T16:53:01.654Z,42.87
2023-03-27T16:58:03.865Z,43.37
2023-03-27T17:03:05.660Z,44.90
2023-03-27T17:08:08.783Z,45.32
2023-03-27T17:13:10.950Z,43.91
2023-03-27T17:18:12.790Z,42.96
2023-03-27T17:23:15.176Z,44.05
2023-03-27T17:28:17.341Z,44.82
2023-03-27T17:33:19.011Z,44.48
2023-03-27T17:38:22.925Z,45.21
2023-03-27T17:43:24.720Z,45.40
2023-03-27T17:48:26.358Z,45.97
2023-03-27T17:53:29.192Z,46.05
2023-03-27T17:58:31.357Z,46.00
2023-03-27T18:03:33.246Z,45.60
2023-03-27T18:08:35.416Z,44.95
2023-03-27T18:13:37.905Z,44.80
2023-03-27T18:18:40.251Z,46.53
2023-03-27T18:23:46.525Z,48.47
2023-03-27T18:28:48.633Z,49.69
2023-03-27T18:33:50.328Z,50.38
2023-03-27T18:38:52.156Z,50.31
2023-03-27T18:43:53.991Z,49.31
2023-03-27T18:48:55.903Z,49.83
2023-03-27T18:53:58.154Z,52.19
2023-03-27T18:58:59.876Z,53.29
2023-03-27T19:04:03.876Z,53.37
2023-03-27T19:09:05.755Z,53.98
2023-03-27T19:14:08.101Z,53.41
2023-03-27T19:19:18.926Z,53.14
2023-03-27T19:24:26.427Z,53.19
2023-03-27T19:29:29.237Z,53.56
2023-03-27T19:34:42.116Z,51.64
2023-03-27T19:39:44.657Z,50.97
2023-03-27T19:44:46.433Z,50.53
2023-03-27T19:49:49.215Z,50.76
2023-03-27T19:54:50.937Z,50.96
2023-03-27T19:59:53.676Z,51.06
2023-03-27T20:04:55.688Z,52.33
2023-03-27T20:09:57.329Z,54.53
2023-03-27T20:15:10.602Z,55.34
2023-03-27T20:20:17.681Z,57.33
2023-03-27T20:25:19.343Z,58.16
2023-03-27T20:30:21.223Z,56.96
2023-03-27T20:35:25.118Z,57.94
2023-03-27T20:40:27.176Z,58.59
2023-03-27T20:45:30.903Z,58.56
2023-03-27T20:50:35.388Z,57.63
2023-03-27T21:00:43.670Z,57.11
2023-03-27T21:05:45.533Z,57.95
2023-03-27T21:10:53.993Z,56.89
2023-03-27T21:15:56.062Z,57.12
2023-03-27T21:20:57.925Z,57.97
2023-03-27T21:26:00.029Z,57.31
2023-03-27T21:31:07.022Z,57.20
2023-03-27T21:36:10.007Z,57.41
2023-03-27T21:41:17.182Z,57.02
2023-03-27T21:46:19.011Z,56.84
2023-03-27T21:51:21.147Z,55.91
2023-03-27T21:56:23.045Z,54.99
2023-03-27T22:01:26.033Z,54.41
2023-03-27T22:06:31.650Z,53.59
2023-03-27T22:11:33.350Z,53.79
2023-03-27T22:16:35.174Z,54.30
2023-03-27T22:21:36.968Z,54.09
2023-03-27T22:26:40.281Z,54.39
2023-03-27T22:31:42.016Z,54.43
2023-03-27T22:36:44.237Z,54.25
2023-03-27T22:41:46.123Z,54.44
2023-03-27T22:46:47.844Z,55.20
2023-03-27T22:51:49.551Z,55.22
2023-03-27T22:56:51.413Z,55.25
2023-03-27T23:01:53.322Z,56.46
2023-03-27T23:06:55.449Z,57.35
2023-03-27T23:11:57.121Z,57.35
2023-03-27T23:16:58.969Z,56.75
2023-03-27T23:22:00.905Z,56.12
2023-03-27T23:27:04.986Z,56.02
2023-03-27T23:32:06.920Z,56.71
2023-03-27T23:37:08.709Z,56.28
2023-03-27T23:42:10.689Z,55.73
2023-03-27T23:47:13.055Z,56.94
2023-03-27T23:52:14.991Z,58.13
2023-03-27T23:57:16.709Z,57.98
